Webster Springs, WV

9:09 AM EST on December 06, 2016 (GMT -0500)
FERN RIDGE MINIATURE DONKEY FARM , WEBSTER SPRINGS,WV | | Change Station

Elev 1919 ft 38.53 °N, 80.41 °W | Updated 4 minutes ago

Overcast
Overcast
43.3 °F
Feels Like 41 °F
N
3.7
Wind Variable Wind from SSE

Today
High -- | Low -- °F
--% Chance of Precip.
Yesterday
High -- | Low -- °F
Precip. -- in
Pressure 29.79 in
Visibility 10.0 miles
Clouds Overcast 3900 ft
Windchill 41 °F
Dew Point 39 °F
Humidity 86%
Rainfall 0.13 in
Snow Depth Not available.
7:25 AM 5:00 PM
Waxing Crescent, 42% visible
METAR KW22 061355Z AUTO 13008KT 10SM OVC039 06/04 A2979 RMK AO2 PWINO
Pressure 29.79 in
Visibility 10.0 miles
Clouds Overcast 3900 ft
Windchill 41 °F
Dew Point 39 °F
Humidity 86%
Rainfall 0.13 in
Snow Depth Not available.
7:25 AM 5:00 PM
Waxing Crescent, 42% visible
METAR KW22 061355Z AUTO 13008KT 10SM OVC039 06/04 A2979 RMK AO2 PWINO

10-Day Weather Forecast

Almanac

Astronomy

Dec. 06, 2016 Rise Set
Actual Time
Civil Twilight
Nautical Twilight
Astronomical Twilight
Moon
Length of Visible Light
Length of Day
Tomorrow will be .
, % of the Moon is Illuminated

Today's Extremes

State Highs State Lows

Community

WunderPhotos

Upload Photos

1,955,949 photos uploaded!

WunderBlog® & News

Nearby

Air Quality

  Air Quality AQ Index Pollutant
Not available.

Snow Depth

Station Depth Elevation

Earthquake Activity

City Distance Mag. Time & Date
Minimum magnitude displayed is 2.5.

Coastal Water Temperatures

Place Temperature

Stations

Nearby Weather Stations

Station Location Temp. Windchill Dew Point Humidity Wind Precip. Elev Updated Type
                   

Watches & Warnings

There are currently no watches in effect.